ELY weather

Ely Airport Yelland Field
Ely, Nevada, United States

Public forecast

Using degrees Fahrenheit for public forecast. Weather courtesy of forecast.io.

Current aviation weather report (METAR) for Ely Airport Yelland Field

Retrieved 2019/10/21 05:53 UTC (9 minutes ago):

KELY 210553Z AUTO 18005KT 10SM BKN060 01/M11 A3018 RMK AO2 SLP206 T00111111 10089 20011 52006

Aviation forecast (TAF) for Ely Airport Yelland Field

Retrieved 2019/10/21 06:22 UTC (0 seconds ago):

TAF KELY 210520Z 2106/2206 18006KT P6SM BKN080 FM212000 32010G20KT P6SM FEW070 SCT250 FM220200 32007KT P6SM FEW250